createdAt,value
2019-04-11T00:00:24.075Z,1006.40
2019-04-11T00:01:36.110Z,1006.45
2019-04-11T00:02:51.285Z,1006.43
2019-04-11T00:03:51.502Z,1006.41
2019-04-11T00:04:52.518Z,1006.43
2019-04-11T00:05:51.289Z,1006.48
2019-04-11T00:06:51.977Z,1006.39
2019-04-11T00:07:52.232Z,1006.42
2019-04-11T00:08:52.320Z,1006.43
2019-04-11T00:09:51.294Z,1006.45
2019-04-11T00:10:51.307Z,1006.49
2019-04-11T00:11:52.330Z,1006.44
2019-04-11T00:12:51.260Z,1006.43
2019-04-11T00:13:51.537Z,1006.49
2019-04-11T00:14:51.809Z,1006.50
2019-04-11T00:15:51.243Z,1006.56
2019-04-11T00:16:51.238Z,1006.50
2019-04-11T00:17:52.307Z,1006.47
2019-04-11T00:18:51.433Z,1006.48
2019-04-11T00:19:51.584Z,1006.45
2019-04-11T00:20:51.208Z,1006.51
2019-04-11T00:21:51.204Z,1006.48
2019-04-11T00:22:52.574Z,1006.49
2019-04-11T00:23:51.242Z,1006.48
2019-04-11T00:24:51.315Z,1006.58
2019-04-11T00:25:51.646Z,1006.53
2019-04-11T00:26:51.174Z,1006.57
2019-04-11T00:27:51.169Z,1006.54
2019-04-11T00:28:52.077Z,1006.54
2019-04-11T00:29:51.421Z,1006.60
2019-04-11T00:30:51.172Z,1006.58
2019-04-11T00:31:51.166Z,1006.58
2019-04-11T00:32:51.876Z,1006.58
2019-04-11T00:33:51.155Z,1006.60
2019-04-11T00:34:51.237Z,1006.59
2019-04-11T00:35:52.204Z,1006.64
2019-04-11T00:36:51.133Z,1006.60
2019-04-11T00:37:51.569Z,1006.62
2019-04-11T00:38:51.122Z,1006.63
2019-04-11T00:39:52.041Z,1006.62
2019-04-11T00:40:51.284Z,1006.61
2019-04-11T00:41:52.323Z,1006.61
2019-04-11T00:42:51.106Z,1006.65
2019-04-11T00:43:51.100Z,1006.63
2019-04-11T00:44:51.457Z,1006.64
2019-04-11T00:45:51.870Z,1006.61
2019-04-11T00:46:51.083Z,1006.57
2019-04-11T00:47:51.137Z,1006.60
2019-04-11T00:48:51.783Z,1006.58
2019-04-11T00:49:51.060Z,1006.56
2019-04-11T00:50:51.706Z,1006.60
2019-04-11T00:51:51.953Z,1006.58
2019-04-11T00:52:51.671Z,1006.60
2019-04-11T00:53:52.010Z,1006.60
2019-04-11T00:54:51.205Z,1006.62
2019-04-11T00:55:51.523Z,1006.59
2019-04-11T00:56:51.040Z,1006.61
2019-04-11T00:57:51.034Z,1006.65
2019-04-11T00:58:52.047Z,1006.66
2019-04-11T00:59:51.028Z,1006.64
2019-04-11T01:00:51.299Z,1006.61
2019-04-11T01:01:51.538Z,1006.67
2019-04-11T01:02:50.999Z,1006.65
2019-04-11T01:03:51.583Z,1006.69
2019-04-11T01:04:50.988Z,1006.69
2019-04-11T01:05:51.957Z,1006.62
2019-04-11T01:06:52.186Z,1006.63
2019-04-11T01:07:51.294Z,1006.62
2019-04-11T01:08:51.624Z,1006.63
2019-04-11T01:09:50.960Z,1006.71
2019-04-11T01:10:51.806Z,1006.72
2019-04-11T01:11:52.144Z,1006.70
2019-04-11T01:12:51.294Z,1006.64
2019-04-11T01:13:53.898Z,1006.66
2019-04-11T01:14:51.254Z,1006.69
2019-04-11T01:15:50.929Z,1006.63
2019-04-11T01:16:50.922Z,1006.67
2019-04-11T01:17:51.722Z,1006.64
2019-04-11T01:18:51.999Z,1006.68
2019-04-11T01:19:51.176Z,1006.67
2019-04-11T01:20:51.495Z,1006.68
2019-04-11T01:21:51.019Z,1006.74
2019-04-11T01:22:50.915Z,1006.71
2019-04-11T01:23:51.322Z,1006.73
2019-04-11T01:24:50.902Z,1006.72
2019-04-11T01:25:50.894Z,1006.71
2019-04-11T01:26:51.769Z,1006.74
2019-04-11T01:27:51.054Z,1006.77
2019-04-11T01:28:51.951Z,1006.73
2019-04-11T01:29:51.560Z,1006.69
2019-04-11T01:30:51.311Z,1006.78
2019-04-11T01:31:51.667Z,1006.73
2019-04-11T01:32:50.856Z,1006.74
2019-04-11T01:33:51.773Z,1006.78
2019-04-11T01:34:50.983Z,1006.78
2019-04-11T01:35:50.834Z,1006.75
2019-04-11T01:36:51.305Z,1006.80
2019-04-11T01:37:50.821Z,1006.76
2019-04-11T01:38:50.811Z,1006.79
2019-04-11T01:39:51.654Z,1006.78
2019-04-11T01:40:50.847Z,1006.80
2019-04-11T01:41:50.959Z,1006.78
2019-04-11T01:42:51.369Z,1006.79
2019-04-11T01:43:56.289Z,1006.77
2019-04-11T01:45:19.065Z,1006.78
2019-04-11T01:46:18.134Z,1006.79
2019-04-11T01:47:18.399Z,1006.78
2019-04-11T01:48:17.997Z,1006.76
2019-04-11T01:49:18.013Z,1006.84
2019-04-11T01:50:18.945Z,1006.79
2019-04-11T01:51:18.001Z,1006.77
2019-04-11T01:52:18.261Z,1006.81
2019-04-11T01:53:19.164Z,1006.84
2019-04-11T01:54:17.980Z,1006.85
2019-04-11T01:55:18.525Z,1006.78
2019-04-11T01:56:17.967Z,1006.81
2019-04-11T01:57:18.062Z,1006.80
2019-04-11T01:58:18.360Z,1006.85
2019-04-11T01:59:17.954Z,1006.89
2019-04-11T02:00:17.946Z,1006.84
2019-04-11T02:01:18.832Z,1006.86
2019-04-11T02:02:19.097Z,1006.84
2019-04-11T02:03:19.107Z,1006.84
2019-04-11T02:04:17.922Z,1006.84
2019-04-11T02:05:18.849Z,1006.85
2019-04-11T02:06:18.061Z,1006.90
2019-04-11T02:07:18.481Z,1006.86
2019-04-11T02:08:17.915Z,1006.86
2019-04-11T02:09:17.894Z,1006.87
2019-04-11T02:10:18.873Z,1006.87
2019-04-11T02:11:17.882Z,1006.89
2019-04-11T02:12:18.251Z,1006.86
2019-04-11T02:13:17.897Z,1006.93
2019-04-11T02:14:19.965Z,1006.98
2019-04-11T02:15:17.882Z,1006.93
2019-04-11T02:16:18.914Z,1006.88
2019-04-11T02:17:18.856Z,1006.87
2019-04-11T02:18:17.864Z,1006.93
2019-04-11T02:19:18.273Z,1006.93
2019-04-11T02:20:17.850Z,1006.93
2019-04-11T02:21:17.934Z,1006.95
2019-04-11T02:22:18.035Z,1006.90
2019-04-11T02:23:17.827Z,1006.94
2019-04-11T02:24:17.821Z,1006.93
2019-04-11T02:25:18.485Z,1006.94
2019-04-11T02:26:18.860Z,1007.01
2019-04-11T02:27:18.959Z,1006.97
2019-04-11T02:28:17.791Z,1007.03
2019-04-11T02:29:17.785Z,1007.03
2019-04-11T02:30:18.911Z,1007.03
2019-04-11T02:31:19.594Z,1007.05
2019-04-11T02:32:18.515Z,1007.02
2019-04-11T02:33:18.419Z,1006.99
2019-04-11T02:34:19.272Z,1007.04
2019-04-11T02:35:19.860Z,1006.98
2019-04-11T02:36:18.913Z,1007.00
2019-04-11T02:37:19.603Z,1007.00
2019-04-11T02:38:18.972Z,1007.03
2019-04-11T02:39:20.340Z,1007.05
2019-04-11T02:40:18.392Z,1007.05
2019-04-11T02:41:18.938Z,1007.09
2019-04-11T02:42:19.051Z,1007.13
2019-04-11T02:43:18.021Z,1007.07
2019-04-11T02:44:30.845Z,1007.08
2019-04-11T02:45:56.954Z,1007.09
2019-04-11T02:47:18.458Z,1007.16
2019-04-11T02:48:40.690Z,1007.11
2019-04-11T02:49:39.388Z,1007.14
2019-04-11T02:50:41.511Z,1007.16
2019-04-11T02:51:39.405Z,1007.20
2019-04-11T02:52:40.152Z,1007.19
2019-04-11T02:53:40.928Z,1007.21
2019-04-11T02:54:40.808Z,1007.22
2019-04-11T02:55:39.324Z,1007.18
2019-04-11T02:56:40.697Z,1007.22
2019-04-11T02:57:40.662Z,1007.17
2019-04-11T02:58:40.117Z,1007.22
2019-04-11T02:59:40.866Z,1007.26
2019-04-11T03:00:40.193Z,1007.21
2019-04-11T03:01:39.887Z,1007.26
2019-04-11T03:02:41.275Z,1007.23
2019-04-11T03:03:39.934Z,1007.26
2019-04-11T03:04:39.414Z,1007.24
2019-04-11T03:05:39.540Z,1007.30
2019-04-11T03:06:39.751Z,1007.29
2019-04-11T03:07:40.097Z,1007.31
2019-04-11T03:08:41.023Z,1007.35
2019-04-11T03:09:39.395Z,1007.32
2019-04-11T03:10:40.909Z,1007.36
2019-04-11T03:11:40.754Z,1007.37
2019-04-11T03:12:40.540Z,1007.40
2019-04-11T03:13:39.575Z,1007.43
2019-04-11T03:15:00.756Z,1007.41
2019-04-11T03:16:21.997Z,1007.49
2019-04-11T03:17:38.529Z,1007.47
2019-04-11T03:19:19.792Z,1007.50
2019-04-11T03:20:34.929Z,1007.46
2019-04-11T03:21:57.240Z,1007.47
2019-04-11T03:23:00.413Z,1007.55
2019-04-11T03:24:24.192Z,1007.55
2019-04-11T03:25:22.719Z,1007.54
2019-04-11T03:26:22.629Z,1007.57
2019-04-11T03:27:25.976Z,1007.55
2019-04-11T03:28:27.070Z,1007.57
2019-04-11T03:29:24.135Z,1007.59
2019-04-11T03:30:34.823Z,1007.64
2019-04-11T03:32:32.061Z,1007.70
2019-04-11T03:35:17.401Z,1007.68
2019-04-11T03:36:13.098Z,1007.73
2019-04-11T03:37:08.772Z,1007.64
2019-04-11T03:37:42.967Z,1007.72
2019-04-11T03:38:42.589Z,1007.73
2019-04-11T03:40:07.831Z,1007.68
2019-04-11T03:41:26.830Z,1007.65
2019-04-11T03:42:53.886Z,1007.72
2019-04-11T03:43:50.900Z,1007.69
2019-04-11T03:45:25.567Z,1007.68
2019-04-11T03:46:49.284Z,1007.79
2019-04-11T03:48:12.546Z,1007.78
2019-04-11T03:49:36.668Z,1007.74
2019-04-11T03:50:57.237Z,1007.86
2019-04-11T03:51:55.189Z,1007.80
2019-04-11T03:52:56.316Z,1007.74
2019-04-11T03:53:54.702Z,1007.78
2019-04-11T03:54:56.207Z,1007.79
2019-04-11T03:55:56.052Z,1007.81
2019-04-11T03:56:54.730Z,1007.80
2019-04-11T03:57:56.782Z,1007.84
2019-04-11T03:58:55.411Z,1007.83
2019-04-11T03:59:56.141Z,1007.85
2019-04-11T04:00:58.837Z,1007.87
2019-04-11T04:01:58.751Z,1007.88
2019-04-11T04:02:55.271Z,1007.90
2019-04-11T04:03:55.590Z,1007.90
2019-04-11T04:04:54.787Z,1007.91
2019-04-11T04:05:55.137Z,1007.92
2019-04-11T04:06:55.231Z,1007.92
2019-04-11T04:07:55.190Z,1007.96
2019-04-11T04:08:55.601Z,1007.89
2019-04-11T04:09:54.681Z,1007.97
2019-04-11T04:10:56.328Z,1007.94
2019-04-11T04:11:55.080Z,1007.90
2019-04-11T04:12:55.874Z,1007.89
2019-04-11T04:13:56.188Z,1007.98
2019-04-11T04:14:54.617Z,1007.94
2019-04-11T04:16:06.319Z,1008.00
2019-04-11T04:17:23.473Z,1007.99
2019-04-11T04:18:23.705Z,1007.98
2019-04-11T04:19:22.716Z,1007.99
2019-04-11T04:20:21.810Z,1008.05
2019-04-11T04:21:22.651Z,1008.04
2019-04-11T04:22:22.923Z,1008.09
2019-04-11T04:23:21.788Z,1008.09
2019-04-11T04:24:22.848Z,1008.08
2019-04-11T04:25:21.778Z,1008.11
2019-04-11T04:26:22.837Z,1008.10
2019-04-11T04:27:23.986Z,1008.09
2019-04-11T04:28:23.288Z,1008.15
2019-04-11T04:29:21.996Z,1008.09
2019-04-11T04:30:22.147Z,1008.12
2019-04-11T04:31:22.513Z,1008.18
2019-04-11T04:32:23.703Z,1008.13
2019-04-11T04:33:22.949Z,1008.19
2019-04-11T04:34:21.869Z,1008.11
2019-04-11T04:35:23.675Z,1008.19
2019-04-11T04:36:22.342Z,1008.19
2019-04-11T04:37:24.120Z,1008.19
2019-04-11T04:38:23.568Z,1008.21
2019-04-11T04:39:22.937Z,1008.21
2019-04-11T04:40:35.993Z,1008.29
2019-04-11T04:41:57.938Z,1008.25
2019-04-11T04:43:16.528Z,1008.30
2019-04-11T04:44:16.935Z,1008.28
2019-04-11T04:45:16.429Z,1008.29
2019-04-11T04:46:31.454Z,1008.31
2019-04-11T04:47:23.768Z,1008.36
2019-04-11T04:48:44.907Z,1008.33
2019-04-11T04:49:43.767Z,1008.30
2019-04-11T04:50:44.890Z,1008.35
2019-04-11T04:51:43.738Z,1008.43
2019-04-11T04:52:44.835Z,1008.47
2019-04-11T04:53:43.278Z,1008.42
2019-04-11T04:54:44.327Z,1008.44
2019-04-11T04:55:43.658Z,1008.40
2019-04-11T04:56:45.319Z,1008.44
2019-04-11T04:57:44.845Z,1008.45
2019-04-11T04:58:44.376Z,1008.47
2019-04-11T04:59:44.748Z,1008.49
2019-04-11T05:00:43.696Z,1008.48
2019-04-11T05:01:44.266Z,1008.50
2019-04-11T05:02:44.177Z,1008.54
2019-04-11T05:03:44.666Z,1008.51
2019-04-11T05:04:43.647Z,1008.53
2019-04-11T05:05:44.247Z,1008.49
2019-04-11T05:06:46.800Z,1008.48
2019-04-11T05:07:46.007Z,1008.53
2019-04-11T05:08:43.231Z,1008.53
2019-04-11T05:09:43.193Z,1008.50
2019-04-11T05:10:43.179Z,1008.54
2019-04-11T05:11:44.619Z,1008.52
2019-04-11T05:12:43.925Z,1008.58
2019-04-11T05:13:45.256Z,1008.50
2019-04-11T05:14:43.471Z,1008.52
2019-04-11T05:15:43.693Z,1008.60
2019-04-11T05:16:44.161Z,1008.59
2019-04-11T05:17:44.458Z,1008.60
2019-04-11T05:18:43.980Z,1008.62
2019-04-11T05:19:43.150Z,1008.62
2019-04-11T05:20:44.221Z,1008.60
2019-04-11T05:21:43.640Z,1008.63
2019-04-11T05:22:43.704Z,1008.66
2019-04-11T05:23:43.127Z,1008.66
2019-04-11T05:24:43.390Z,1008.66
2019-04-11T05:25:43.115Z,1008.68
2019-04-11T05:26:43.933Z,1008.63
2019-04-11T05:27:43.101Z,1008.62
2019-04-11T05:28:43.667Z,1008.66
2019-04-11T05:29:43.930Z,1008.71
2019-04-11T05:30:43.083Z,1008.67
2019-04-11T05:31:43.077Z,1008.73
2019-04-11T05:32:43.068Z,1008.74
2019-04-11T05:33:43.482Z,1008.76
2019-04-11T05:34:43.505Z,1008.72
2019-04-11T05:35:43.781Z,1008.75
2019-04-11T05:36:43.041Z,1008.72
2019-04-11T05:37:43.033Z,1008.70
2019-04-11T05:38:44.245Z,1008.73
2019-04-11T05:39:43.020Z,1008.74
2019-04-11T05:40:43.012Z,1008.74
2019-04-11T05:41:46.639Z,1008.71
2019-04-11T05:42:42.999Z,1008.72
2019-04-11T05:43:43.120Z,1008.73
2019-04-11T05:44:43.235Z,1008.80
2019-04-11T05:45:42.980Z,1008.80
2019-04-11T05:46:52.362Z,1008.82
2019-04-11T05:48:11.590Z,1008.83
2019-04-11T05:49:11.357Z,1008.78
2019-04-11T05:50:13.585Z,1008.83
2019-04-11T05:51:10.928Z,1008.85
2019-04-11T05:52:10.666Z,1008.84
2019-04-11T05:53:10.709Z,1008.90
2019-04-11T05:54:10.772Z,1008.91
2019-04-11T05:55:13.521Z,1008.86
2019-04-11T05:56:11.245Z,1008.84
2019-04-11T05:57:11.270Z,1008.88
2019-04-11T05:58:13.904Z,1008.92
2019-04-11T05:59:14.694Z,1008.88
2019-04-11T06:00:11.662Z,1008.89
2019-04-11T06:01:12.942Z,1008.89
2019-04-11T06:02:11.027Z,1008.93
2019-04-11T06:03:10.593Z,1008.87
2019-04-11T06:04:15.271Z,1008.92
2019-04-11T06:05:39.191Z,1008.89
2019-04-11T06:06:40.185Z,1008.93
2019-04-11T06:07:42.168Z,1008.83
2019-04-11T06:09:06.922Z,1008.90
2019-04-11T06:10:08.582Z,1008.89
2019-04-11T06:11:06.415Z,1008.92
2019-04-11T06:12:05.997Z,1008.94
2019-04-11T06:13:05.993Z,1008.91
2019-04-11T06:14:07.337Z,1008.89
2019-04-11T06:15:06.056Z,1008.96
2019-04-11T06:16:06.379Z,1008.93
2019-04-11T06:17:07.197Z,1008.95
2019-04-11T06:18:07.012Z,1008.95
2019-04-11T06:19:06.125Z,1009.01
2019-04-11T06:20:06.176Z,1008.97
2019-04-11T06:21:05.944Z,1009.02
2019-04-11T06:22:06.656Z,1009.07
2019-04-11T06:23:06.703Z,1009.03
2019-04-11T06:24:05.918Z,1009.01
2019-04-11T06:25:06.741Z,1009.05
2019-04-11T06:26:06.800Z,1009.07
2019-04-11T06:27:06.907Z,1009.05
2019-04-11T06:28:06.241Z,1009.02
2019-04-11T06:29:15.471Z,1009.03
2019-04-11T06:30:34.622Z,1009.09
2019-04-11T06:31:33.874Z,1009.07
2019-04-11T06:32:34.134Z,1009.11
2019-04-11T06:33:34.495Z,1009.09
2019-04-11T06:34:33.589Z,1009.10
2019-04-11T06:35:33.583Z,1009.13
2019-04-11T06:36:33.798Z,1009.16
2019-04-11T06:37:33.979Z,1009.11
2019-04-11T06:38:34.385Z,1009.07
2019-04-11T06:39:33.639Z,1009.12
2019-04-11T06:40:34.615Z,1009.13
2019-04-11T06:41:34.663Z,1009.13
2019-04-11T06:42:33.539Z,1009.10
2019-04-11T06:43:34.202Z,1009.08
2019-04-11T06:44:34.238Z,1009.13
2019-04-11T06:45:33.565Z,1009.16
2019-04-11T06:46:33.512Z,1009.17
2019-04-11T06:47:34.597Z,1009.16
2019-04-11T06:48:33.855Z,1009.14
2019-04-11T06:49:34.207Z,1009.12
2019-04-11T06:50:33.561Z,1009.17
2019-04-11T06:51:33.479Z,1009.15
2019-04-11T06:52:33.473Z,1009.13
2019-04-11T06:53:34.394Z,1009.22
2019-04-11T06:54:33.459Z,1009.17
2019-04-11T06:55:33.452Z,1009.18
2019-04-11T06:56:33.446Z,1009.18
2019-04-11T06:57:34.182Z,1009.15
2019-04-11T06:58:33.432Z,1009.22
2019-04-11T06:59:34.472Z,1009.22
2019-04-11T07:00:33.676Z,1009.24
2019-04-11T07:01:34.201Z,1009.24
2019-04-11T07:02:34.111Z,1009.15
2019-04-11T07:03:33.832Z,1009.20
2019-04-11T07:04:33.671Z,1009.19
2019-04-11T07:05:33.389Z,1009.18
2019-04-11T07:06:33.494Z,1009.25
2019-04-11T07:07:35.629Z,1009.19
2019-04-11T07:08:34.210Z,1009.24
2019-04-11T07:09:33.384Z,1009.25
2019-04-11T07:10:34.169Z,1009.18
2019-04-11T07:11:34.119Z,1009.20
2019-04-11T07:12:33.366Z,1009.05
2019-04-11T07:13:33.357Z,1009.22
2019-04-11T07:14:33.353Z,1009.21
2019-04-11T07:15:33.342Z,1009.13
2019-04-11T07:16:34.040Z,1009.12
2019-04-11T07:17:33.871Z,1009.19
2019-04-11T07:18:33.322Z,1009.12
2019-04-11T07:19:33.315Z,1009.18
2019-04-11T07:20:33.574Z,1009.21
2019-04-11T07:21:33.358Z,1009.21
2019-04-11T07:22:33.295Z,1009.15
2019-04-11T07:23:33.290Z,1009.18
2019-04-11T07:24:33.456Z,1009.19
2019-04-11T07:25:33.275Z,1009.21
2019-04-11T07:26:33.276Z,1009.19
2019-04-11T07:27:34.491Z,1009.21
2019-04-11T07:28:33.720Z,1009.19
2019-04-11T07:29:33.688Z,1009.18
2019-04-11T07:30:33.315Z,1009.22
2019-04-11T07:31:33.233Z,1009.19
2019-04-11T07:32:34.267Z,1009.13
2019-04-11T07:33:33.401Z,1009.21
2019-04-11T07:34:35.587Z,1009.20
2019-04-11T07:35:33.678Z,1009.17
2019-04-11T07:36:33.888Z,1009.21
2019-04-11T07:37:33.209Z,1009.18
2019-04-11T07:38:33.201Z,1009.18
2019-04-11T07:39:33.684Z,1009.15
2019-04-11T07:40:33.420Z,1009.20
2019-04-11T07:41:34.017Z,1009.20
2019-04-11T07:42:35.399Z,1009.22
2019-04-11T07:43:33.551Z,1009.18
2019-04-11T07:44:34.056Z,1009.20
2019-04-11T07:45:34.288Z,1009.18
2019-04-11T07:46:33.151Z,1009.08
2019-04-11T07:47:33.143Z,1009.16
2019-04-11T07:48:33.809Z,1009.12
2019-04-11T07:49:33.134Z,1009.14
2019-04-11T07:50:33.393Z,1009.13
2019-04-11T07:51:34.363Z,1009.11
2019-04-11T07:52:34.416Z,1009.14
2019-04-11T07:53:33.719Z,1009.13
2019-04-11T07:54:33.103Z,1009.16
2019-04-11T07:55:34.153Z,1009.15
2019-04-11T07:56:33.247Z,1009.25
2019-04-11T07:57:33.084Z,1009.24
2019-04-11T07:58:33.081Z,1009.20
2019-04-11T07:59:33.848Z,1009.21
2019-04-11T08:00:40.985Z,1009.20
2019-04-11T08:02:01.559Z,1009.19
2019-04-11T08:03:01.962Z,1009.25
2019-04-11T08:04:01.675Z,1009.23
2019-04-11T08:05:00.765Z,1009.22
2019-04-11T08:06:00.932Z,1009.20
2019-04-11T08:07:00.752Z,1009.22
2019-04-11T08:08:00.746Z,1009.18
2019-04-11T08:09:00.742Z,1009.19
2019-04-11T08:10:00.734Z,1009.22
2019-04-11T08:11:00.728Z,1009.24
2019-04-11T08:12:00.723Z,1009.23
2019-04-11T08:13:01.691Z,1009.19
2019-04-11T08:14:00.711Z,1009.13
2019-04-11T08:15:01.495Z,1009.17
2019-04-11T08:16:00.701Z,1009.14
2019-04-11T08:17:01.654Z,1009.19
2019-04-11T08:18:01.770Z,1009.19
2019-04-11T08:19:01.394Z,1009.16
2019-04-11T08:20:00.671Z,1009.14
2019-04-11T08:21:01.733Z,1009.18
2019-04-11T08:22:00.943Z,1009.14
2019-04-11T08:23:00.649Z,1009.11
2019-04-11T08:24:00.644Z,1009.11
2019-04-11T08:25:00.839Z,1009.02
2019-04-11T08:26:01.841Z,1009.08
2019-04-11T08:27:00.953Z,1009.02
2019-04-11T08:28:04.119Z,1008.99
2019-04-11T08:29:08.410Z,1008.92
2019-04-11T08:31:28.796Z,1008.96
2019-04-11T08:32:29.590Z,1008.94
2019-04-11T08:33:28.792Z,1008.87
2019-04-11T08:34:29.134Z,1008.88
2019-04-11T08:35:28.430Z,1008.82
2019-04-11T08:36:29.476Z,1008.76
2019-04-11T08:37:29.602Z,1008.91
2019-04-11T08:38:28.802Z,1008.84
2019-04-11T08:39:56.039Z,1008.89
2019-04-11T08:40:56.037Z,1008.89
2019-04-11T08:41:56.913Z,1008.83
2019-04-11T08:42:56.983Z,1008.87
2019-04-11T08:43:56.252Z,1008.90
2019-04-11T08:44:57.202Z,1008.82
2019-04-11T08:45:56.258Z,1008.88
2019-04-11T08:46:56.048Z,1008.89
2019-04-11T08:47:58.588Z,1008.84
2019-04-11T08:48:57.268Z,1008.81
2019-04-11T08:49:57.034Z,1008.84
2019-04-11T08:50:56.002Z,1008.88
2019-04-11T08:51:56.011Z,1008.80
2019-04-11T08:52:56.166Z,1008.82
2019-04-11T08:53:56.994Z,1008.80
2019-04-11T08:55:58.822Z,1008.85
2019-04-11T08:56:55.956Z,1008.80
2019-04-11T08:57:56.149Z,1008.82
2019-04-11T08:58:55.942Z,1008.82
2019-04-11T08:59:55.936Z,1008.79
2019-04-11T09:00:58.697Z,1008.76
2019-04-11T09:01:56.081Z,1008.71
2019-04-11T09:02:55.920Z,1008.70
2019-04-11T09:04:02.220Z,1008.70
2019-04-11T09:05:24.903Z,1008.74
2019-04-11T09:06:24.831Z,1008.69
2019-04-11T09:07:23.629Z,1008.72
2019-04-11T09:08:25.113Z,1008.70
2019-04-11T09:09:23.873Z,1008.65
2019-04-11T09:10:24.142Z,1008.66
2019-04-11T09:11:24.640Z,1008.77
2019-04-11T09:12:24.614Z,1008.72
2019-04-11T09:13:23.593Z,1008.69
2019-04-11T09:14:24.293Z,1008.84
2019-04-11T09:15:24.472Z,1008.79
2019-04-11T09:16:23.711Z,1008.81
2019-04-11T09:17:23.593Z,1008.83
2019-04-11T09:18:23.584Z,1008.75
2019-04-11T09:19:23.577Z,1008.79
2019-04-11T09:20:23.570Z,1008.82
2019-04-11T09:21:24.403Z,1008.78
2019-04-11T09:22:24.649Z,1008.77
2019-04-11T09:23:23.859Z,1008.81
2019-04-11T09:24:24.197Z,1008.76
2019-04-11T09:25:23.544Z,1008.80
2019-04-11T09:26:25.664Z,1008.85
2019-04-11T09:27:24.697Z,1008.88
2019-04-11T09:28:23.520Z,1008.84
2019-04-11T09:29:24.089Z,1008.89
2019-04-11T09:30:23.510Z,1008.82
2019-04-11T09:31:23.505Z,1008.82
2019-04-11T09:32:25.076Z,1008.90
2019-04-11T09:33:24.607Z,1008.93
2019-04-11T09:34:23.878Z,1008.95
2019-04-11T09:35:24.114Z,1008.92
2019-04-11T09:36:23.939Z,1008.91
2019-04-11T09:37:23.482Z,1008.84
2019-04-11T09:38:24.318Z,1008.86
2019-04-11T09:39:24.650Z,1008.81
2019-04-11T09:40:24.079Z,1008.80
2019-04-11T09:41:24.695Z,1008.76
2019-04-11T09:43:24.142Z,1008.79
2019-04-11T09:44:24.500Z,1008.70
2019-04-11T09:45:23.702Z,1008.77
2019-04-11T09:46:24.127Z,1008.73
2019-04-11T09:47:24.207Z,1008.71
2019-04-11T09:48:24.556Z,1008.66
2019-04-11T09:49:23.670Z,1008.68
2019-04-11T09:50:24.543Z,1008.69
2019-04-11T09:51:23.499Z,1008.65
2019-04-11T09:52:23.431Z,1008.55
2019-04-11T09:53:23.426Z,1008.59
2019-04-11T09:54:23.988Z,1008.56
2019-04-11T09:55:23.434Z,1008.59
2019-04-11T09:56:23.410Z,1008.56
2019-04-11T09:57:24.733Z,1008.60
2019-04-11T09:58:23.419Z,1008.57
2019-04-11T09:59:23.414Z,1008.49
2019-04-11T10:00:23.417Z,1008.54
2019-04-11T10:01:24.523Z,1008.54
2019-04-11T10:02:23.420Z,1008.49
2019-04-11T10:03:23.539Z,1008.53
2019-04-11T10:04:23.464Z,1008.58
2019-04-11T10:05:24.436Z,1008.52
2019-04-11T10:06:23.827Z,1008.52
